createdAt,value
2019-06-07T00:02:08.201Z,98777.98
2019-06-07T00:04:43.284Z,98770.16
2019-06-07T00:07:21.749Z,98781.39
2019-06-07T00:09:51.783Z,98774.97
2019-06-07T00:12:23.849Z,98776.36
2019-06-07T00:14:55.895Z,98783.77
2019-06-07T00:17:30.505Z,98778.95
2019-06-07T00:20:04.150Z,98782.17
2019-06-07T00:22:35.811Z,98786.56
2019-06-07T00:25:12.068Z,98795.03
2019-06-07T00:27:43.929Z,98781.99
2019-06-07T00:30:50.784Z,98782.52
2019-06-07T00:33:21.097Z,98779.50
2019-06-07T00:35:53.244Z,98788.72
2019-06-07T00:38:26.097Z,98798.75
2019-06-07T00:41:00.920Z,98803.73
2019-06-07T00:43:33.295Z,98798.16
2019-06-07T00:46:18.135Z,98792.83
2019-06-07T00:48:51.847Z,98784.53
2019-06-07T00:51:26.854Z,98782.61
2019-06-07T00:53:58.996Z,98779.86
2019-06-07T00:56:31.065Z,98779.04
2019-06-07T00:59:11.211Z,98770.93
2019-06-07T01:01:44.254Z,98769.41
2019-06-07T01:04:21.270Z,98764.48
2019-06-07T01:06:55.923Z,98768.83
2019-06-07T01:09:30.261Z,98766.67
2019-06-07T01:12:02.276Z,98766.48
2019-06-07T01:14:34.271Z,98761.74
2019-06-07T01:17:40.086Z,98761.63
2019-06-07T01:20:02.373Z,98749.36
2019-06-07T01:22:37.840Z,98759.47
2019-06-07T01:25:10.439Z,98757.66
2019-06-07T01:27:41.645Z,98761.30
2019-06-07T01:30:35.921Z,98753.91
2019-06-07T01:33:10.998Z,98743.98
2019-06-07T01:35:45.290Z,98738.22
2019-06-07T01:38:21.985Z,98737.36
2019-06-07T01:40:56.104Z,98740.98
2019-06-07T01:43:30.859Z,98741.11
2019-06-07T01:46:01.334Z,98741.25
2019-06-07T01:48:48.981Z,98746.55
2019-06-07T01:51:12.084Z,98743.63
2019-06-07T01:53:45.260Z,98745.58
2019-06-07T01:56:22.555Z,98723.84
2019-06-07T01:58:56.259Z,98749.09
2019-06-07T02:01:35.070Z,98760.61
2019-06-07T02:04:06.316Z,98763.88
2019-06-07T02:06:41.333Z,98757.57
2019-06-07T02:09:16.635Z,98770.39
2019-06-07T02:11:51.370Z,98762.30
2019-06-07T02:14:27.374Z,98766.41
2019-06-07T02:17:01.389Z,98767.75
2019-06-07T02:19:34.667Z,98785.16
2019-06-07T02:22:07.560Z,98775.00
2019-06-07T02:24:40.455Z,98775.38
2019-06-07T02:27:14.424Z,98768.34
2019-06-07T02:29:47.080Z,98778.88
2019-06-07T02:32:18.816Z,98767.63
2019-06-07T02:34:52.259Z,98768.59
2019-06-07T02:37:31.582Z,98612.72
2019-06-07T02:40:01.918Z,98779.60
2019-06-07T02:42:41.866Z,98779.11
2019-06-07T02:45:11.065Z,98799.31
2019-06-07T02:48:01.815Z,98805.11
2019-06-07T02:50:39.026Z,98808.03
2019-06-07T02:53:11.543Z,98811.42
2019-06-07T02:56:33.201Z,98820.73
2019-06-07T02:58:17.887Z,98815.66
2019-06-07T03:01:06.478Z,98814.19
2019-06-07T03:03:32.615Z,98819.63
2019-06-07T03:06:14.554Z,98822.05
2019-06-07T03:08:47.658Z,98821.47
2019-06-07T03:11:24.354Z,98825.31
2019-06-07T03:13:57.323Z,98823.48
2019-06-07T03:16:37.359Z,98820.97
2019-06-07T03:19:18.397Z,98815.74
2019-06-07T03:21:50.409Z,98822.39
2019-06-07T03:24:29.599Z,98824.23
2019-06-07T03:29:40.982Z,98836.45
2019-06-07T03:32:11.888Z,98836.09
2019-06-07T03:34:44.846Z,98833.19
2019-06-07T03:37:16.063Z,98835.00
2019-06-07T03:39:49.745Z,98842.98
2019-06-07T03:42:21.978Z,98857.48
2019-06-07T03:44:55.006Z,98855.58
2019-06-07T03:47:32.378Z,98852.92
2019-06-07T03:50:05.679Z,98848.31
2019-06-07T03:52:41.630Z,98855.94
2019-06-07T03:55:40.418Z,98847.35
2019-06-07T04:00:51.262Z,98859.09
2019-06-07T04:03:33.387Z,98857.63
2019-06-07T04:06:01.128Z,98863.44
2019-06-07T04:08:41.382Z,98865.26
2019-06-07T04:11:14.149Z,98861.52
2019-06-07T04:13:46.075Z,98854.73
2019-06-07T04:16:18.182Z,98861.39
2019-06-07T04:18:51.101Z,98869.62
2019-06-07T04:21:24.081Z,98873.86
2019-06-07T04:23:56.954Z,98877.37
2019-06-07T04:26:31.387Z,98879.05
2019-06-07T04:29:32.364Z,98880.27
2019-06-07T04:31:43.129Z,98889.70
2019-06-07T04:34:16.889Z,98888.75
2019-06-07T04:36:59.147Z,98899.51
2019-06-07T04:39:26.467Z,98898.78
2019-06-07T04:42:01.135Z,98895.29
2019-06-07T04:44:39.354Z,98902.17
2019-06-07T04:47:15.809Z,98908.89
2019-06-07T04:49:49.747Z,98913.80
2019-06-07T04:52:23.426Z,98909.09
2019-06-07T04:54:56.996Z,98907.89
2019-06-07T04:57:34.845Z,98908.12
2019-06-07T05:02:51.943Z,98918.77
2019-06-07T05:05:27.052Z,98925.19
2019-06-07T05:07:58.257Z,98919.64
2019-06-07T05:10:35.086Z,98926.31
2019-06-07T05:13:08.517Z,98926.67
2019-06-07T05:15:42.354Z,98929.56
2019-06-07T05:18:14.184Z,98921.19
2019-06-07T05:20:46.975Z,98931.61
2019-06-07T05:24:00.137Z,98933.29
2019-06-07T05:26:04.726Z,98937.80
2019-06-07T05:28:42.316Z,98934.91
2019-06-07T05:31:11.743Z,98948.45
2019-06-07T05:33:44.430Z,98942.63
2019-06-07T05:36:16.376Z,98941.05
2019-06-07T05:38:48.411Z,98940.53
2019-06-07T05:41:21.713Z,98936.67
2019-06-07T05:44:12.141Z,98938.48
2019-06-07T05:46:33.819Z,98942.60
2019-06-07T05:49:06.471Z,98939.70
2019-06-07T05:51:41.915Z,98940.41
2019-06-07T05:54:14.840Z,98942.06
2019-06-07T05:56:47.498Z,98938.27
2019-06-07T05:59:23.285Z,98940.80
2019-06-07T06:02:03.192Z,98940.69
2019-06-07T06:04:29.789Z,98936.22
2019-06-07T06:07:03.849Z,98943.70
2019-06-07T06:09:36.452Z,98941.14
2019-06-07T06:12:11.459Z,98937.73
2019-06-07T06:14:46.891Z,98948.67
2019-06-07T06:17:18.610Z,98942.19
2019-06-07T06:19:53.586Z,98951.87
2019-06-07T06:22:28.170Z,98949.55
2019-06-07T06:25:30.751Z,98952.23
2019-06-07T06:28:10.093Z,98941.69
2019-06-07T06:30:25.221Z,98939.66
2019-06-07T06:32:58.753Z,98934.34
2019-06-07T06:35:33.042Z,98946.06
2019-06-07T06:38:05.927Z,98946.41
2019-06-07T06:40:44.307Z,98950.79
2019-06-07T06:43:16.152Z,98948.53
2019-06-07T06:45:55.813Z,98944.36
2019-06-07T06:48:29.405Z,98939.84
2019-06-07T06:51:00.949Z,98946.03
2019-06-07T06:53:34.900Z,98940.33
2019-06-07T06:56:10.397Z,98939.33
2019-06-07T06:59:33.972Z,98947.67
2019-06-07T07:01:20.523Z,98950.90
2019-06-07T07:04:10.559Z,98943.91
2019-06-07T07:06:29.782Z,98949.59
2019-06-07T07:09:05.783Z,98952.89
2019-06-07T07:11:56.310Z,98954.86
2019-06-07T07:14:15.528Z,98952.14
2019-06-07T07:16:53.632Z,98955.96
2019-06-07T07:19:21.905Z,98956.94
2019-06-07T07:21:55.602Z,98961.97
2019-06-07T07:24:29.052Z,98961.50
2019-06-07T07:27:02.082Z,98953.44
2019-06-07T07:29:33.720Z,98947.61
2019-06-07T07:32:06.250Z,98952.91
2019-06-07T07:34:38.102Z,98947.87
2019-06-07T07:37:12.163Z,98947.14
2019-06-07T07:39:48.113Z,98959.05
2019-06-07T07:42:21.501Z,98960.77
2019-06-07T07:44:55.121Z,98962.11
2019-06-07T07:47:27.403Z,98954.27
2019-06-07T07:50:01.861Z,98943.98
2019-06-07T07:52:40.205Z,98948.33
2019-06-07T07:55:16.641Z,98951.51
2019-06-07T07:57:58.124Z,98956.72
2019-06-07T08:00:50.216Z,98957.80
2019-06-07T08:03:04.579Z,98961.72
2019-06-07T08:05:42.849Z,98956.44
2019-06-07T08:08:11.418Z,98952.16
2019-06-07T08:10:44.375Z,98951.98
2019-06-07T08:13:26.949Z,98950.84
2019-06-07T08:15:54.408Z,98940.42
2019-06-07T08:18:26.699Z,98941.36
2019-06-07T08:21:21.560Z,98937.78
2019-06-07T08:23:36.221Z,98954.75
2019-06-07T08:26:10.307Z,98959.91
2019-06-07T08:28:44.229Z,98957.77
2019-06-07T08:31:16.914Z,98957.85
2019-06-07T08:33:50.197Z,98955.38
2019-06-07T08:36:40.847Z,98960.64
2019-06-07T08:39:05.683Z,98963.56
2019-06-07T08:41:32.525Z,98963.58
2019-06-07T08:44:22.669Z,98961.38
2019-06-07T08:46:41.591Z,98968.04
2019-06-07T08:49:15.558Z,98963.45
2019-06-07T08:51:47.575Z,98968.98
2019-06-07T08:54:23.001Z,98968.05
2019-06-07T08:57:06.555Z,98964.57
2019-06-07T08:59:28.490Z,98966.28
2019-06-07T09:02:19.985Z,98967.89
2019-06-07T09:04:37.881Z,98964.45
2019-06-07T09:07:19.212Z,98959.83
2019-06-07T09:09:43.719Z,98961.54
2019-06-07T09:12:17.607Z,98960.52
2019-06-07T09:15:07.317Z,98954.14
2019-06-07T09:17:24.930Z,98953.17
2019-06-07T09:19:59.033Z,98956.19
2019-06-07T09:22:31.667Z,98952.13
2019-06-07T09:25:20.069Z,98953.09
2019-06-07T09:27:41.970Z,98949.96
2019-06-07T09:30:39.457Z,98961.52
2019-06-07T09:33:11.454Z,98958.30
2019-06-07T09:35:46.041Z,98959.60
2019-06-07T09:38:25.676Z,98967.05
2019-06-07T09:40:53.630Z,98965.16
2019-06-07T09:46:04.028Z,98955.48
2019-06-07T09:49:09.713Z,98961.75
2019-06-07T09:51:19.109Z,98946.96
2019-06-07T09:53:43.787Z,98952.03
2019-06-07T09:56:17.759Z,98943.30
2019-06-07T09:58:53.964Z,98944.72
2019-06-07T10:01:27.077Z,98940.37
2019-06-07T10:04:04.677Z,98937.41
2019-06-07T10:06:34.934Z,98934.73
2019-06-07T10:11:43.706Z,98939.10
2019-06-07T10:14:17.746Z,98941.45
2019-06-07T10:16:51.154Z,98943.39
2019-06-07T10:19:26.616Z,98945.03
2019-06-07T10:21:59.168Z,98941.84
2019-06-07T10:24:30.980Z,98936.45
2019-06-07T10:27:04.038Z,98934.13
2019-06-07T10:29:36.954Z,98930.27
2019-06-07T10:32:09.237Z,98931.64
2019-06-07T10:34:43.237Z,98926.43
2019-06-07T10:37:16.091Z,98924.61
2019-06-07T10:39:49.395Z,98923.45
2019-06-07T10:42:21.006Z,98919.73
2019-06-07T10:44:56.721Z,98919.13
2019-06-07T10:47:29.130Z,98915.53
2019-06-07T10:50:02.275Z,98921.83
2019-06-07T10:52:45.336Z,98922.86
2019-06-07T10:55:20.650Z,98922.91
2019-06-07T10:57:53.728Z,98777.97
2019-06-07T11:00:27.291Z,98910.55
2019-06-07T11:02:59.051Z,98908.83
2019-06-07T11:05:33.981Z,98903.08
2019-06-07T11:08:06.222Z,98899.83
2019-06-07T11:10:39.697Z,98899.34
2019-06-07T11:13:12.507Z,98902.88
2019-06-07T11:15:45.376Z,98910.02
2019-06-07T11:18:18.918Z,98902.73
2019-06-07T11:20:52.575Z,98900.02
2019-06-07T11:23:26.311Z,98900.60
2019-06-07T11:25:59.493Z,98891.66
2019-06-07T11:28:32.169Z,98890.39
2019-06-07T11:31:08.432Z,98895.55
2019-06-07T11:33:41.217Z,98891.53
2019-06-07T11:36:15.501Z,98880.95
2019-06-07T11:38:49.165Z,98891.62
2019-06-07T11:41:24.036Z,98883.77
2019-06-07T11:43:59.806Z,98638.81
2019-06-07T11:46:32.720Z,98874.84
2019-06-07T11:49:08.235Z,98887.54
2019-06-07T11:51:41.798Z,98884.73
2019-06-07T11:54:14.074Z,98877.78
2019-06-07T11:56:48.222Z,98884.27
2019-06-07T11:59:21.418Z,98883.75
2019-06-07T12:01:54.414Z,98873.98
2019-06-07T12:04:34.479Z,98870.96
2019-06-07T12:07:03.719Z,98867.36
2019-06-07T12:09:37.737Z,98859.67
2019-06-07T12:12:10.267Z,98852.78
2019-06-07T12:14:44.409Z,98857.91
2019-06-07T12:17:17.640Z,98854.73
2019-06-07T12:19:50.468Z,98847.95
2019-06-07T12:22:23.474Z,98848.56
2019-06-07T12:24:57.561Z,98842.57
2019-06-07T12:27:30.595Z,98724.12
2019-06-07T12:30:27.690Z,98842.55
2019-06-07T12:32:56.735Z,98837.73
2019-06-07T12:35:32.581Z,98827.56
2019-06-07T12:38:05.713Z,98819.86
2019-06-07T12:40:39.376Z,98827.56
2019-06-07T12:43:12.395Z,98822.39
2019-06-07T12:45:46.158Z,98811.30
2019-06-07T12:48:23.756Z,98814.42
2019-06-07T12:50:53.729Z,98809.19
2019-06-07T12:53:29.177Z,98807.89
2019-06-07T12:56:03.476Z,98815.98
2019-06-07T12:58:39.447Z,98809.57
2019-06-07T13:01:11.499Z,98817.91
2019-06-07T13:03:47.430Z,98814.23
2019-06-07T13:06:23.708Z,98815.73
2019-06-07T13:08:56.999Z,98813.20
2019-06-07T13:11:31.786Z,98810.28
2019-06-07T13:14:03.866Z,98816.23
2019-06-07T13:16:35.826Z,98811.70
2019-06-07T13:19:08.867Z,98808.97
2019-06-07T13:21:40.922Z,98799.76
2019-06-07T13:24:16.228Z,98794.67
2019-06-07T13:26:47.932Z,98795.93
2019-06-07T13:29:21.091Z,98798.55
2019-06-07T13:31:56.578Z,98792.50
2019-06-07T13:34:29.071Z,98785.06
2019-06-07T13:37:01.942Z,98788.54
2019-06-07T13:39:33.525Z,98780.41
2019-06-07T13:42:06.440Z,98779.23
2019-06-07T13:44:39.960Z,98782.61
2019-06-07T13:47:14.114Z,98784.60
2019-06-07T13:49:48.007Z,98781.71
2019-06-07T13:52:21.739Z,98778.59
2019-06-07T13:54:54.034Z,98772.02
2019-06-07T13:57:28.178Z,98773.34
2019-06-07T14:00:00.063Z,98774.99
2019-06-07T14:02:42.665Z,98771.70
2019-06-07T14:05:18.996Z,98766.26
2019-06-07T14:07:52.871Z,98766.10
2019-06-07T14:10:31.873Z,98762.12
2019-06-07T14:13:06.423Z,98764.52
2019-06-07T14:15:38.952Z,98757.77
2019-06-07T14:18:13.987Z,98749.35
2019-06-07T14:20:48.214Z,98747.75
2019-06-07T14:23:40.135Z,98749.53
2019-06-07T14:25:57.979Z,98743.41
2019-06-07T14:28:33.724Z,98735.75
2019-06-07T14:31:06.952Z,98740.32
2019-06-07T14:33:39.992Z,98736.23
2019-06-07T14:36:15.911Z,98735.63
2019-06-07T14:38:47.345Z,98736.09
2019-06-07T14:41:19.133Z,98738.91
2019-06-07T14:43:51.209Z,98733.70
2019-06-07T14:46:28.188Z,98735.44
2019-06-07T14:49:00.234Z,98728.27
2019-06-07T14:51:33.846Z,98730.30
2019-06-07T14:54:11.377Z,98728.09
2019-06-07T14:56:43.206Z,98731.38
2019-06-07T14:59:18.159Z,98722.80
2019-06-07T15:01:52.475Z,98726.14
2019-06-07T15:04:28.582Z,98724.30
2019-06-07T15:07:03.550Z,98725.59
2019-06-07T15:09:37.133Z,98720.32
2019-06-07T15:12:24.671Z,98725.59
2019-06-07T15:14:47.087Z,98722.00
2019-06-07T15:17:19.567Z,98721.23
2019-06-07T15:19:53.663Z,98716.30
2019-06-07T15:22:26.301Z,98714.89
2019-06-07T15:25:02.404Z,98720.17
2019-06-07T15:27:45.859Z,98707.58
2019-06-07T15:30:18.467Z,98708.28
2019-06-07T15:32:50.465Z,98705.84
2019-06-07T15:35:23.751Z,98700.07
2019-06-07T15:37:57.369Z,98699.67
2019-06-07T15:40:30.906Z,98701.56
2019-06-07T15:43:02.483Z,98693.60
2019-06-07T15:45:35.619Z,98698.25
2019-06-07T15:48:09.493Z,98702.86
2019-06-07T15:50:42.700Z,98700.77
2019-06-07T15:53:17.238Z,98698.31
2019-06-07T15:55:49.440Z,98694.16
2019-06-07T15:58:24.214Z,98686.98
2019-06-07T16:00:59.304Z,98686.72
2019-06-07T16:03:31.591Z,98689.66
2019-06-07T16:06:05.900Z,98678.91
2019-06-07T16:08:38.641Z,98689.13
2019-06-07T16:11:14.204Z,98689.81
2019-06-07T16:13:46.640Z,98681.06
2019-06-07T16:16:20.415Z,98683.05
2019-06-07T16:18:51.732Z,98565.31
2019-06-07T16:21:27.403Z,98677.05
2019-06-07T16:24:02.559Z,98669.94
2019-06-07T16:26:36.077Z,98681.06
2019-06-07T16:29:10.066Z,98679.36
2019-06-07T16:31:45.061Z,98679.66
2019-06-07T16:34:17.790Z,98680.90
2019-06-07T16:36:49.986Z,98670.66
2019-06-07T16:39:24.572Z,98670.51
2019-06-07T16:41:56.832Z,98670.25
2019-06-07T16:44:28.063Z,98675.77
2019-06-07T16:47:03.481Z,98672.05
2019-06-07T16:49:38.678Z,98670.38
2019-06-07T16:52:14.550Z,98672.14
2019-06-07T16:54:47.950Z,98650.34
2019-06-07T16:57:20.955Z,98674.21
2019-06-07T16:59:53.011Z,98669.98
2019-06-07T17:02:25.120Z,98669.42
2019-06-07T17:04:57.813Z,98665.69
2019-06-07T17:07:42.289Z,98664.98
2019-06-07T17:10:20.444Z,98666.08
2019-06-07T17:12:51.904Z,98665.94
2019-06-07T17:15:25.992Z,98664.44
2019-06-07T17:17:58.025Z,98671.09
2019-06-07T17:20:33.867Z,98676.84
2019-06-07T17:23:09.396Z,98670.83
2019-06-07T17:25:43.951Z,98668.95
2019-06-07T17:28:17.785Z,98671.14
2019-06-07T17:30:51.989Z,98664.70
2019-06-07T17:33:24.304Z,98670.58
2019-06-07T17:35:59.798Z,98671.44
2019-06-07T17:38:34.043Z,98671.09
2019-06-07T17:41:08.276Z,98668.49
2019-06-07T17:43:54.777Z,98660.28
2019-06-07T17:46:16.363Z,98667.65
2019-06-07T17:48:47.732Z,98654.98
2019-06-07T17:51:19.648Z,98670.62
2019-06-07T17:53:55.016Z,98664.66
2019-06-07T17:56:26.250Z,98661.34
2019-06-07T17:58:57.890Z,98662.73
2019-06-07T18:01:41.183Z,98665.56
2019-06-07T18:04:06.891Z,98662.59
2019-06-07T18:06:40.173Z,98660.81
2019-06-07T18:09:16.826Z,98662.10
2019-06-07T18:11:49.984Z,98658.41
2019-06-07T18:14:25.513Z,98663.91
2019-06-07T18:16:58.255Z,98659.84
2019-06-07T18:19:29.546Z,98664.64
2019-06-07T18:22:01.486Z,98664.98
2019-06-07T18:24:36.270Z,98663.61
2019-06-07T18:27:08.673Z,98671.33
2019-06-07T18:29:40.456Z,98676.68
2019-06-07T18:32:13.788Z,98675.08
2019-06-07T18:34:46.697Z,98675.61
2019-06-07T18:37:18.509Z,98673.47
2019-06-07T18:39:51.112Z,98667.33
2019-06-07T18:42:23.537Z,98672.21
2019-06-07T18:44:56.520Z,98675.67
2019-06-07T18:47:30.452Z,98678.68
2019-06-07T18:50:18.602Z,98679.14
2019-06-07T18:52:52.672Z,98680.15
2019-06-07T18:55:28.203Z,98681.55
2019-06-07T18:57:59.662Z,98679.16
2019-06-07T19:00:34.667Z,98675.28
2019-06-07T19:03:08.817Z,98681.19
2019-06-07T19:05:41.902Z,98672.46
2019-06-07T19:08:15.549Z,98669.06
2019-06-07T19:10:48.968Z,98681.04
2019-06-07T19:13:23.534Z,98674.90
2019-06-07T19:15:57.474Z,98683.48
2019-06-07T19:18:30.542Z,98691.02
2019-06-07T19:21:02.636Z,98690.87
2019-06-07T19:23:37.527Z,98696.73
2019-06-07T19:26:11.666Z,98686.21
2019-06-07T19:28:45.731Z,98693.64
2019-06-07T19:31:19.840Z,98694.05
2019-06-07T19:33:53.043Z,98574.64
2019-06-07T19:36:24.835Z,98698.39
2019-06-07T19:38:57.847Z,98707.34
2019-06-07T19:41:30.849Z,98720.23
2019-06-07T19:44:05.414Z,98719.73
2019-06-07T19:46:38.719Z,98710.22
2019-06-07T19:49:10.743Z,98709.30
2019-06-07T19:51:42.781Z,98712.33
2019-06-07T19:54:14.871Z,98713.84
2019-06-07T19:56:49.128Z,98724.09
2019-06-07T19:59:21.765Z,98718.52
2019-06-07T20:01:55.750Z,98717.28
2019-06-07T20:04:30.588Z,98712.66
2019-06-07T20:07:05.214Z,98685.80
2019-06-07T20:09:36.925Z,98707.13
2019-06-07T20:12:12.403Z,98717.59
2019-06-07T20:14:44.880Z,98716.52
2019-06-07T20:17:17.909Z,98720.51
2019-06-07T20:19:54.129Z,98717.27
2019-06-07T20:22:26.003Z,98719.68
2019-06-07T20:24:58.848Z,98723.55
2019-06-07T20:27:34.821Z,98722.34
2019-06-07T20:30:16.909Z,98728.80
2019-06-07T20:32:48.929Z,98729.20
2019-06-07T20:35:27.377Z,98736.08
2019-06-07T20:38:06.983Z,98727.78
2019-06-07T20:40:39.044Z,98724.77
2019-06-07T20:43:12.082Z,98716.48
2019-06-07T20:45:45.157Z,98723.38
2019-06-07T20:48:25.480Z,98728.48
2019-06-07T20:50:59.269Z,98728.30
2019-06-07T20:53:32.220Z,98723.28
2019-06-07T20:56:09.190Z,98727.04
2019-06-07T20:58:42.248Z,98724.47
2019-06-07T21:01:16.901Z,98735.73
2019-06-07T21:03:55.222Z,98732.39
2019-06-07T21:06:27.061Z,98711.88
2019-06-07T21:09:08.015Z,98736.50
2019-06-07T21:11:53.611Z,98737.38
2019-06-07T21:14:36.521Z,98735.97
2019-06-07T21:17:11.485Z,98741.05
2019-06-07T21:19:42.762Z,98740.55
2019-06-07T21:22:15.657Z,98741.22
2019-06-07T21:24:49.272Z,98738.09
2019-06-07T21:27:23.184Z,98731.16
2019-06-07T21:29:55.252Z,98737.05
2019-06-07T21:32:30.723Z,98734.21
2019-06-07T21:35:21.315Z,98729.48
2019-06-07T21:37:55.127Z,98734.88
2019-06-07T21:40:30.445Z,98741.77
2019-06-07T21:43:04.345Z,98744.14
2019-06-07T21:45:38.350Z,98733.53
2019-06-07T21:48:14.188Z,98732.68
2019-06-07T21:50:49.519Z,98726.13
2019-06-07T21:53:25.025Z,98713.34
2019-06-07T21:55:57.503Z,98724.27
2019-06-07T21:58:31.340Z,98718.05
2019-06-07T22:01:24.439Z,98723.44
2019-06-07T22:03:57.618Z,98717.72
2019-06-07T22:06:33.822Z,98716.35
2019-06-07T22:09:09.742Z,98721.41
2019-06-07T22:11:52.003Z,98718.39
2019-06-07T22:14:39.100Z,98710.63
2019-06-07T22:17:21.687Z,98716.67
2019-06-07T22:19:55.783Z,98710.26
2019-06-07T22:22:29.635Z,98706.82
2019-06-07T22:25:15.145Z,98712.05
2019-06-07T22:27:48.065Z,98712.63
2019-06-07T22:30:20.149Z,98702.23
2019-06-07T22:32:52.759Z,98708.14
2019-06-07T22:35:25.639Z,98709.30
2019-06-07T22:37:58.663Z,98712.02
2019-06-07T22:40:31.698Z,98719.73
2019-06-07T22:43:07.648Z,98719.08
2019-06-07T22:45:40.748Z,98711.66
2019-06-07T22:48:13.419Z,98704.91
2019-06-07T22:50:45.778Z,98707.73
2019-06-07T22:53:18.690Z,98711.28
2019-06-07T22:55:58.341Z,98713.66
2019-06-07T22:58:31.728Z,98715.86
2019-06-07T23:01:04.675Z,98708.30
2019-06-07T23:03:37.712Z,98575.11
2019-06-07T23:06:11.095Z,98698.18
2019-06-07T23:08:44.705Z,98693.98
2019-06-07T23:11:17.761Z,98698.34
2019-06-07T23:13:50.622Z,98697.52
2019-06-07T23:16:21.850Z,98689.79
2019-06-07T23:18:53.633Z,98693.56
2019-06-07T23:21:27.721Z,98690.66
2019-06-07T23:24:01.819Z,98694.75
2019-06-07T23:26:34.908Z,98691.59
2019-06-07T23:29:07.884Z,98696.79
2019-06-07T23:31:43.374Z,98695.11
2019-06-07T23:34:16.930Z,98693.95
2019-06-07T23:36:50.826Z,98691.39
2019-06-07T23:39:23.209Z,98692.42
2019-06-07T23:41:54.954Z,98692.45
2019-06-07T23:44:27.952Z,98696.45
2019-06-07T23:47:10.704Z,98692.31
2019-06-07T23:49:35.980Z,98691.80
2019-06-07T23:52:09.068Z,98695.14
2019-06-07T23:54:40.276Z,98686.67
2019-06-07T23:57:12.134Z,98691.36
2019-06-07T23:59:44.028Z,98685.79
